Callaway, VA

11:46 PM EST on January 24, 2015 (GMT -0500)
New River Valley | Change Station
CLOSE
Current Station
Airport
Location: Dublin,
Elevation: 2106 ft
Nearby Weather Stations

Elev 2106 ft 37.14 °N, 80.68 °W | Updated 11 minutes ago

Overcast
Overcast
35 °F
Feels Like 24 °F
N
18
Wind Variable Wind from West
Gusts 28 mph

Today
High -- | Low -- °F
--% Chance of Precip.
Yesterday
High -- | Low -- °F
Precip. -- in
7:28 AM 5:36 PM
Waxing Crescent, 28% visible
Pressure 29.79 in
Visibility 10.0 miles
Clouds Overcast 2200 ft
Windchill 24 °F
Dew Point 29 °F
Humidity 79%
Rainfall 0.06 in
Snow Depth Not available.
UV 0 out of 12
Pollen .30 out of 12
Air Quality Not available.
Flu Activity Not available.
METAR KPSK 250435Z AUTO 28016G24KT 10SM OVC022 02/M02 A2979 RMK AO2 T00171016

More Conditions Fewer Conditions

Pressure 29.79 in
Visibility 10.0 miles
Clouds Overcast 2200 ft
Windchill 24 °F
Dew Point 29 °F
Humidity 79%
Rainfall 0.06 in
Snow Depth Not available.
UV 0 out of 12
Pollen .30 out of 12
Air Quality Not available.
Flu Activity Not available.
METAR KPSK 250435Z AUTO 28016G24KT 10SM OVC022 02/M02 A2979 RMK AO2 T00171016

More Conditions Fewer Conditions

10-Day Weather Forecast

Almanac

Astronomy

Jan. 24, 2015 Rise Set
Actual Time
Civil Twilight
Nautical Twilight
Astronomical Twilight
Moon
Length of Visible Light
Length of Day
Tomorrow will be .
, % of the Moon is Illuminated

Today's Extremes

State Highs State Lows

Community

WunderPhotos

Upload Photos

1,789,839 photos uploaded!

WunderBlogs® & News

Nearby

Air Quality

  Air Quality AQ Index Pollutant
Not available.

Snow Depth

Station Depth Elevation

Earthquake Activity

City Distance Mag. Time & Date
Minimum magnitude displayed is 2.5.

Coastal Water Temperatures

Place Temperature

Nearby Weather Stations